Time;durP1;ratioP1;P1;durP2;ratioP2;P2;SDS_P1;SDS_P2;PMS_P1;PMS_P2;Temp;Humidity;BMP_temperature;BMP_pressure;BME280_temperature;BME280_humidity;BME280_pressure;Samples;Min_cycle;Max_cycle;Signal;HPM_P1;HPM_P2
2022/05/09 00:00:54;;;;;;;3.38;1.27;;;15.50;36.80;;;13.32;39.62;102447.47;12242543;19;20003;-79
2022/05/09 00:04:55;;;;;;;3.10;1.33;;;15.70;37.00;;;13.20;39.70;102444.34;12243566;19;20035;-80
2022/05/09 00:08:57;;;;;;;5.20;1.02;;;15.40;37.00;;;13.12;39.84;102448.19;12246436;19;20464;-80
2022/05/09 00:12:58;;;;;;;1.13;0.95;;;15.30;37.00;;;12.85;39.87;102419.47;12243250;19;20035;-79
2022/05/09 00:17:00;;;;;;;3.25;1.30;;;15.10;37.00;;;12.74;39.95;102425.09;12244586;19;20070;-79
2022/05/09 00:21:02;;;;;;;3.33;0.90;;;15.10;37.10;;;12.62;39.95;102423.78;12245148;19;20552;-80
2022/05/09 00:25:04;;;;;;;3.30;1.00;;;14.80;37.10;;;12.57;40.12;102430.13;12241616;19;20031;-79
2022/05/09 00:29:07;;;;;;;2.65;1.10;;;14.90;37.30;;;12.34;40.13;102400.38;12244244;19;20459;-80
2022/05/09 00:33:09;;;;;;;5.55;1.20;;;14.80;37.30;;;12.58;40.08;102448.44;12241983;19;20022;-80
2022/05/09 00:37:10;;;;;;;2.38;1.02;;;14.70;37.40;;;12.38;40.29;102425.53;12244202;19;20386;-80
2022/05/09 00:41:28;;;;;;;2.05;0.98;;;14.70;37.50;;;12.42;40.24;102441.13;12245052;19;20017;-80
2022/05/09 00:45:30;;;;;;;1.65;0.85;;;14.50;37.40;;;12.43;40.37;102450.72;12242417;19;20437;-79
2022/05/09 00:49:46;;;;;;;3.00;1.20;;;14.60;37.60;;;12.27;40.82;102432.91;12240941;19;20024;-79
2022/05/09 00:53:49;;;;;;;2.97;1.15;;;14.50;38.00;;;12.25;40.42;102447.81;12242524;19;20035;-79
2022/05/09 00:58:09;;;;;;;1.33;0.90;;;14.40;37.70;;;12.31;40.82;102462.47;12241529;19;20086;-79
2022/05/09 01:02:14;;;;;;;3.97;1.20;;;14.40;37.80;;;12.17;40.66;102448.09;12244769;19;20006;-80
2022/05/09 01:06:16;;;;;;;2.40;1.00;;;14.40;37.70;;;12.12;40.81;102443.91;12243131;19;20021;-80
2022/05/09 01:10:21;;;;;;;1.38;0.95;;;14.30;37.70;;;12.11;40.86;102456.16;12242646;19;20042;-79
2022/05/09 01:14:28;;;;;;;2.50;1.20;;;14.20;37.90;;;11.97;41.02;102449.69;12239443;19;20007;-79
2022/05/09 01:18:32;;;;;;;2.78;0.90;;;14.00;37.80;;;11.79;41.00;102431.00;12241276;19;20022;-79
2022/05/09 01:22:37;;;;;;;1.25;0.80;;;14.10;37.90;;;11.80;41.28;102447.56;12240305;19;20014;-80
2022/05/09 01:26:39;;;;;;;1.27;0.82;;;13.90;38.10;;;11.76;41.14;102448.59;12239963;19;20010;-79
2022/05/09 01:30:55;;;;;;;3.17;1.23;;;13.90;38.00;;;11.78;41.34;102452.88;12239465;19;20018;-79
2022/05/09 01:35:15;;;;;;;1.73;0.88;;;13.90;38.20;;;11.70;41.46;102457.50;12240026;19;20011;-79
2022/05/09 01:39:17;;;;;;;1.08;0.98;;;13.80;38.20;;;11.73;41.41;102465.25;12239722;19;20019;-79
2022/05/09 01:43:38;;;;;;;1.48;1.00;;;13.90;38.30;;;11.60;41.69;102451.69;12240453;19;20412;-80
2022/05/09 01:52:08;;;;;;;2.88;1.20;;;13.80;38.20;;;11.56;41.56;102459.69;12241168;19;20037;-79
2022/05/09 01:56:13;;;;;;;2.35;1.20;;;13.80;38.30;;;11.45;41.70;102452.16;12241730;19;20041;-79
2022/05/09 02:00:16;;;;;;;1.45;1.02;;;13.70;38.40;;;11.51;41.72;102463.31;12235990;19;20021;-80
2022/05/09 02:04:18;;;;;;;2.30;1.15;;;13.70;38.30;;;11.50;41.55;102460.72;12237382;19;20478;-80
2022/05/09 02:08:19;;;;;;;1.60;1.15;;;13.50;38.30;;;11.38;41.52;102451.50;12237613;19;20018;-79
2022/05/09 02:12:22;;;;;;;2.25;1.05;;;13.70;38.40;;;11.48;41.68;102475.63;12236322;19;20011;-79
2022/05/09 02:16:25;;;;;;;4.50;1.50;;;13.60;38.50;;;11.46;41.93;102480.91;12239560;19;20022;-79
2022/05/09 02:20:26;;;;;;;3.45;1.20;;;13.60;38.50;;;11.39;41.83;102465.44;12238755;19;20098;-79
2022/05/09 02:24:29;;;;;;;3.03;1.27;;;13.60;38.50;;;10.95;41.96;102392.66;12236130;19;20019;-79
2022/05/09 02:28:31;;;;;;;3.17;1.42;;;13.30;38.50;;;11.25;41.88;102452.78;12237174;19;20034;-79
2022/05/09 02:32:33;;;;;;;2.50;1.30;;;13.50;38.70;;;11.22;41.99;102445.03;12237378;19;20018;-80
2022/05/09 02:36:35;;;;;;;1.30;0.93;;;13.30;38.60;;;11.36;42.09;102482.06;12237001;19;20341;-80
2022/05/09 02:40:37;;;;;;;2.33;1.23;;;13.40;38.70;;;11.22;41.97;102465.97;12235770;19;20014;-79
2022/05/09 02:44:39;;;;;;;1.77;1.27;;;13.50;38.70;;;11.28;41.96;102482.31;12235407;19;20018;-79
2022/05/09 02:48:41;;;;;;;3.33;1.40;;;13.40;38.70;;;10.93;42.17;102427.59;12235921;19;20011;-79
2022/05/09 02:52:43;;;;;;;1.60;1.50;;;13.40;38.70;;;11.15;42.27;102473.13;12237238;19;20014;-79
2022/05/09 02:56:45;;;;;;;2.75;1.33;;;13.40;38.70;;;11.01;42.41;102467.44;12236044;19;20599;-79
2022/05/09 03:00:47;;;;;;;3.75;1.77;;;13.40;38.70;;;10.85;42.22;102454.81;12233175;19;20039;-80
2022/05/09 03:04:49;;;;;;;3.38;1.23;;;13.30;38.80;;;10.90;42.43;102459.91;12233853;19;20474;-79
2022/05/09 03:08:50;;;;;;;2.83;1.30;;;13.10;38.70;;;10.80;42.38;102442.75;12235365;19;20018;-79
2022/05/09 03:12:52;;;;;;;5.05;1.58;;;13.20;38.80;;;10.81;42.43;102460.19;12247099;19;20504;-79
2022/05/09 03:16:54;;;;;;;1.67;1.10;;;13.20;38.80;;;10.89;42.39;102483.47;12249784;19;20023;-79
2022/05/09 03:20:55;;;;;;;1.35;1.23;;;13.10;38.80;;;10.88;42.61;102495.66;12246695;19;20288;-80
2022/05/09 03:24:57;;;;;;;2.90;1.50;;;13.00;38.90;;;10.83;42.51;102493.22;12246428;19;20019;-79
2022/05/09 03:28:58;;;;;;;2.45;1.08;;;13.00;38.90;;;10.77;42.52;102489.88;12251567;19;20003;-80
2022/05/09 03:33:00;;;;;;;1.85;1.25;;;12.90;38.90;;;10.62;42.66;102481.59;12247535;19;20567;-80
2022/05/09 03:37:02;;;;;;;1.70;1.10;;;13.00;39.00;;;10.62;42.67;102478.13;12249418;19;20014;-80
2022/05/09 03:41:03;;;;;;;3.72;1.35;;;12.90;39.10;;;10.70;42.70;102496.19;12244530;19;20411;-80
2022/05/09 03:45:07;;;;;;;3.78;1.30;;;12.80;39.10;;;10.63;42.87;102492.88;12245677;19;20010;-79
2022/05/09 03:49:10;;;;;;;1.55;0.93;;;12.90;39.30;;;10.65;42.93;102500.69;12247106;19;20026;-79
2022/05/09 03:53:12;;;;;;;2.15;1.40;;;12.80;39.20;;;10.47;42.95;102479.38;12247237;19;19999;-79
2022/05/09 03:57:14;;;;;;;2.25;1.38;;;12.90;39.40;;;10.57;42.96;102496.53;12247491;19;20021;-79
2022/05/09 04:01:17;;;;;;;1.95;1.30;;;12.80;39.40;;;10.51;43.03;102496.69;12248627;19;20026;-80
2022/05/09 04:05:19;;;;;;;1.27;1.00;;;13.00;39.50;;;10.38;43.31;102483.09;12248878;19;20006;-80
2022/05/09 04:09:21;;;;;;;2.30;1.27;;;12.80;39.60;;;10.32;43.15;102470.19;12246744;19;20014;-80
2022/05/09 04:13:23;;;;;;;2.83;1.50;;;12.70;39.50;;;10.49;43.13;102503.69;12245982;19;20098;-80
2022/05/09 04:17:25;;;;;;;5.00;1.50;;;12.70;39.60;;;10.49;43.31;102502.84;12245808;19;20030;-80
2022/05/09 04:21:27;;;;;;;3.90;1.45;;;12.70;39.60;;;10.46;43.34;102497.72;12247452;19;20021;-80
2022/05/09 04:25:33;;;;;;;1.77;1.10;;;12.70;39.90;;;10.39;43.49;102490.00;12245290;19;20010;-79
2022/05/09 04:29:35;;;;;;;3.42;1.90;;;12.70;40.00;;;10.49;43.54;102513.28;12248376;19;20053;-80
2022/05/09 04:33:36;;;;;;;2.55;1.20;;;12.80;40.50;;;10.02;43.77;102453.53;12244619;19;20051;-80
2022/05/09 04:37:39;;;;;;;2.47;1.50;;;12.60;40.20;;;10.23;43.87;102501.72;12244986;19;20030;-80
2022/05/09 04:41:41;;;;;;;5.07;2.15;;;12.70;40.40;;;10.29;44.02;102524.22;12245260;19;20018;-80
2022/05/09 04:45:43;;;;;;;2.58;1.75;;;12.60;40.60;;;10.32;44.09;102530.25;12246772;19;20013;-80
2022/05/09 04:49:45;;;;;;;2.47;1.38;;;12.60;40.90;;;10.35;44.29;102531.94;12245513;19;20460;-80
2022/05/09 04:53:49;;;;;;;4.63;1.48;;;12.30;40.90;;;10.43;44.35;102530.00;12244799;19;20455;-80
2022/05/09 04:57:51;;;;;;;3.70;1.35;;;12.60;41.30;;;10.36;44.44;102505.75;12245236;19;20014;-80
2022/05/09 05:01:53;;;;;;;9.35;1.80;;;12.50;41.40;;;10.59;44.64;102533.06;12244579;19;20014;-80
2022/05/09 05:05:55;;;;;;;1.92;1.75;;;12.50;41.60;;;10.47;44.69;102499.41;12244878;19;20014;-80
2022/05/09 05:09:57;;;;;;;3.13;1.73;;;12.80;41.80;;;10.74;44.85;102537.00;12247166;19;20349;-80
2022/05/09 05:13:59;;;;;;;3.08;2.20;;;12.80;42.10;;;10.84;44.88;102534.13;12241825;19;20021;-80
2022/05/09 05:18:01;;;;;;;5.03;2.40;;;13.20;42.20;;;10.90;45.13;102517.41;12245198;19;20018;-80
2022/05/09 05:22:04;;;;;;;1.60;1.50;;;13.00;42.00;;;11.06;45.08;102529.13;12243943;19;20014;-79
2022/05/09 05:26:06;;;;;;;2.10;1.80;;;13.10;42.00;;;10.91;44.96;102494.72;12243483;19;20014;-80
2022/05/09 05:30:10;;;;;;;2.40;2.00;;;13.30;42.10;;;11.21;44.95;102533.09;12243751;19;20019;-80
2022/05/09 05:34:11;;;;;;;2.15;1.73;;;13.30;42.10;;;10.94;45.21;102476.38;12239168;19;20019;-80
2022/05/09 05:38:13;;;;;;;4.28;1.75;;;13.40;42.30;;;11.25;45.35;102492.00;12242470;19;20025;-80
2022/05/09 05:42:18;;;;;;;2.83;2.22;;;13.30;42.50;;;11.52;45.38;102509.47;12243413;19;20034;-80
2022/05/09 05:46:19;;;;;;;3.00;1.60;;;13.40;42.60;;;11.85;45.30;102530.28;12241100;19;20612;-81
2022/05/09 05:50:23;;;;;;;2.40;1.75;;;13.70;42.60;;;11.97;45.50;102510.75;12242385;19;20077;-80
2022/05/09 05:54:24;;;;;;;2.83;2.10;;;14.00;42.70;;;12.39;45.37;102547.78;12240194;19;20078;-80
2022/05/09 05:58:28;;;;;;;1.80;1.55;;;14.20;42.50;;;12.38;45.21;102500.66;12238529;19;20011;-80
2022/05/09 06:02:30;;;;;;;2.97;1.65;;;14.30;42.60;;;12.90;45.19;102545.16;12240401;19;20014;-80
2022/05/09 06:06:32;;;;;;;3.08;1.73;;;14.70;42.40;;;13.08;45.20;102539.25;12239543;19;20018;-79
2022/05/09 06:10:34;;;;;;;3.83;2.00;;;14.70;42.30;;;13.14;45.07;102525.91;12242494;19;20010;-80
2022/05/09 06:14:38;;;;;;;2.80;1.83;;;15.10;42.20;;;13.36;45.06;102525.13;12238157;19;20022;-81
2022/05/09 06:18:39;;;;;;;2.75;2.13;;;15.30;42.20;;;13.45;45.01;102530.91;12238409;19;20043;-79
2022/05/09 06:22:41;;;;;;;3.15;1.92;;;15.50;42.00;;;13.67;45.19;102553.69;12240166;19;20006;-79
2022/05/09 06:26:45;;;;;;;2.95;2.33;;;15.50;41.80;;;13.60;45.22;102525.97;12240952;19;20015;-79
2022/05/09 06:30:47;;;;;;;2.53;1.90;;;15.70;41.70;;;13.81;45.21;102555.78;12241049;19;20022;-78
2022/05/09 06:34:48;;;;;;;2.60;2.10;;;15.80;41.70;;;13.72;45.19;102528.97;12238895;19;20037;-79
2022/05/09 06:38:50;;;;;;;3.58;2.40;;;15.80;41.70;;;13.90;45.16;102555.41;12239512;19;20007;-79
2022/05/09 06:42:54;;;;;;;3.42;2.60;;;15.80;41.50;;;14.01;45.11;102552.34;12238851;19;20019;-79
2022/05/09 06:46:56;;;;;;;3.95;2.45;;;16.00;41.60;;;14.07;45.15;102545.09;12238935;19;20025;-79
2022/05/09 06:50:57;;;;;;;3.03;2.17;;;16.10;41.50;;;14.19;45.14;102554.25;12239355;19;20101;-79
2022/05/09 06:54:59;;;;;;;2.40;2.20;;;16.20;41.60;;;14.27;45.00;102548.66;12236375;19;20025;-79
2022/05/09 06:59:00;;;;;;;3.75;2.40;;;16.30;41.30;;;14.41;45.07;102567.34;12237688;19;20042;-79
2022/05/09 07:03:04;;;;;;;2.67;2.17;;;16.40;41.40;;;14.39;45.04;102556.03;12238899;19;20014;-79
2022/05/09 07:07:06;;;;;;;2.95;1.95;;;16.50;41.30;;;14.36;45.05;102541.22;12238758;19;20040;-79
2022/05/09 07:11:10;;;;;;;2.33;2.13;;;16.60;41.30;;;14.52;45.06;102540.59;12238698;19;20031;-80
2022/05/09 07:15:15;;;;;;;3.00;2.17;;;16.60;41.40;;;14.71;44.94;102556.47;12235609;19;20459;-79
2022/05/09 07:19:17;;;;;;;3.20;2.40;;;16.70;41.20;;;14.97;44.90;102565.88;12235153;19;20036;-79
2022/05/09 07:23:19;;;;;;;3.17;2.22;;;16.90;41.30;;;15.10;44.81;102550.41;12235559;19;20010;-80
2022/05/09 07:27:20;;;;;;;4.07;2.90;;;17.00;41.30;;;15.38;44.92;102574.53;12236045;19;20074;-80
2022/05/09 07:31:22;;;;;;;4.30;2.38;;;17.00;41.20;;;15.40;44.57;102538.44;12237788;19;20078;-80
2022/05/09 07:35:25;;;;;;;3.20;2.08;;;17.20;40.90;;;15.73;44.48;102568.59;12235334;19;20336;-79
2022/05/09 07:39:27;;;;;;;5.75;2.60;;;17.50;40.90;;;15.84;44.65;102539.94;12234467;19;20018;-83
2022/05/09 07:43:30;;;;;;;4.28;2.15;;;17.70;40.90;;;16.05;44.43;102538.91;12234099;19;20022;-79
2022/05/09 07:47:31;;;;;;;7.10;2.80;;;17.90;40.80;;;16.40;44.24;102548.63;12235833;19;20027;-79
2022/05/09 07:51:37;;;;;;;3.80;2.05;;;18.00;40.70;;;16.70;44.26;102560.22;12236969;19;20038;-79
2022/05/09 07:55:40;;;;;;;3.50;2.35;;;18.30;40.70;;;16.88;44.13;102547.06;12236928;19;20014;-79
2022/05/09 07:59:44;;;;;;;3.13;2.58;;;18.60;40.60;;;17.00;44.01;102534.03;12245445;19;20042;-79
2022/05/09 08:03:45;;;;;;;4.40;3.13;;;18.90;40.40;;;17.23;43.77;102543.38;12247287;19;20006;-79
2022/05/09 08:07:47;;;;;;;3.38;2.67;;;19.00;40.20;;;17.43;43.80;102552.00;12246399;19;20340;-81
2022/05/09 08:11:49;;;;;;;2.47;2.22;;;19.10;40.00;;;17.43;43.73;102515.03;12247627;19;20012;-82
2022/05/09 08:15:53;;;;;;;4.05;2.85;;;19.30;40.20;;;17.69;43.51;102527.63;12246872;19;20472;-80
2022/05/09 08:19:55;;;;;;;4.43;2.53;;;19.50;39.80;;;17.87;43.36;102536.31;12245813;19;20038;-80
2022/05/09 08:23:59;;;;;;;3.28;2.42;;;19.60;39.60;;;17.92;43.26;102522.84;12246869;19;20014;-80
2022/05/09 08:28:03;;;;;;;3.83;2.25;;;19.80;39.60;;;18.25;43.21;102537.69;12246040;19;20082;-80
2022/05/09 08:32:05;;;;;;;3.80;2.20;;;19.90;39.70;;;18.25;43.13;102508.59;12247136;19;20035;-79
2022/05/09 08:36:09;;;;;;;6.03;3.08;;;20.20;39.40;;;18.51;43.04;102536.16;12245932;19;20007;-80
2022/05/09 08:40:13;;;;;;;4.93;2.50;;;20.30;39.20;;;18.36;43.11;102498.22;12245720;19;20018;-80
2022/05/09 08:44:43;;;;;;;3.40;2.30;;;20.40;39.20;;;18.75;42.89;102553.22;12243258;19;20014;-80
2022/05/09 08:49:10;;;;;;;3.55;2.40;;;20.50;38.90;;;18.89;42.82;102539.16;12245777;19;20018;-80
2022/05/09 08:53:19;;;;;;;4.15;2.45;;;20.70;38.70;;;18.98;42.73;102517.41;12243628;19;20035;-80
2022/05/09 08:57:28;;;;;;;3.58;2.38;;;20.80;38.70;;;18.95;42.27;102477.03;12243854;19;20382;-80
2022/05/09 09:02:15;;;;;;;6.28;2.80;;;21.00;38.20;;;19.49;42.11;102529.25;12243792;19;20011;-80
2022/05/09 09:07:09;;;;;;;4.38;2.22;;;21.20;38.10;;;19.58;42.08;102518.06;12240127;19;20098;-80
2022/05/09 09:11:24;;;;;;;4.10;2.13;;;21.30;38.00;;;19.81;41.78;102533.34;12244754;19;20074;-80
2022/05/09 09:16:08;;;;;;;4.32;2.03;;;21.40;37.90;;;19.99;41.70;102527.78;12243142;19;20022;-80
2022/05/09 09:20:28;;;;;;;3.28;2.22;;;21.70;37.90;;;20.10;41.01;102527.94;12239183;19;20010;-81
2022/05/09 09:25:02;;;;;;;3.25;1.65;;;21.80;37.10;;;20.34;41.44;102534.22;12242183;19;20023;-80
2022/05/09 09:29:18;;;;;;;2.95;2.40;;;22.00;37.40;;;20.59;41.03;102532.59;12245018;19;20003;-80
2022/05/09 09:33:20;;;;;;;3.83;2.20;;;22.10;37.30;;;20.48;41.06;102476.72;12241367;19;20018;-80
2022/05/09 09:38:01;;;;;;;3.35;2.28;;;22.40;37.20;;;20.69;41.02;102483.22;12242786;19;20345;-79
2022/05/09 09:42:03;;;;;;;6.38;2.10;;;22.60;37.10;;;21.03;40.57;102502.06;12242584;19;20078;-79
2022/05/09 09:46:07;;;;;;;4.15;1.90;;;22.80;36.60;;;21.06;40.03;102487.72;12242180;19;20010;-79
2022/05/09 09:50:25;;;;;;;3.65;1.65;;;22.90;36.10;;;21.08;39.68;102485.78;12244196;19;20018;-79
2022/05/09 09:54:33;;;;;;;3.28;1.95;;;22.90;35.00;;;21.06;39.30;102488.56;12239667;19;20014;-79
2022/05/09 09:58:38;;;;;;;3.47;1.90;;;23.00;35.20;;;21.15;39.36;102501.19;12240511;19;20094;-79
2022/05/09 10:02:40;;;;;;;3.15;1.50;;;23.00;35.10;;;21.21;39.60;102506.06;12239951;19;20034;-79
2022/05/09 10:07:05;;;;;;;4.03;1.70;;;23.00;35.60;;;21.40;39.11;102499.44;12241379;19;20010;-79
2022/05/09 10:11:24;;;;;;;2.37;1.37;;;23.10;34.90;;;21.57;38.78;102493.72;12244274;19;20632;-79
2022/05/09 10:15:34;;;;;;;1.98;1.33;;;23.20;34.90;;;21.71;38.58;102495.41;12240583;19;20876;-79
2022/05/09 10:19:37;;;;;;;1.88;1.52;;;23.40;34.70;;;21.81;38.75;102474.25;12240019;19;20529;-79
2022/05/09 10:28:22;;;;;;;2.00;1.45;;;23.60;34.00;;;22.10;37.60;102486.22;12240940;19;20031;-79
2022/05/09 10:32:43;;;;;;;2.33;1.48;;;23.80;33.90;;;22.23;37.34;102480.00;12240187;19;20018;-79
2022/05/09 10:37:18;;;;;;;3.25;1.55;;;23.90;33.60;;;22.24;37.67;102452.41;12239642;19;20746;-79
2022/05/09 10:41:31;;;;;;;3.38;1.60;;;24.00;33.40;;;22.22;37.49;102447.19;12236535;19;20019;-80
2022/05/09 10:45:48;;;;;;;11.05;2.30;;;23.80;33.60;;;22.39;37.09;102445.91;12240209;19;20065;-79
2022/05/09 10:50:04;;;;;;;2.75;1.77;;;24.10;33.60;;;22.46;36.98;102428.44;12239488;19;20011;-79
2022/05/09 10:54:30;;;;;;;2.65;1.77;;;24.20;33.40;;;22.64;36.94;102451.94;12237953;19;20031;-79
2022/05/09 10:59:04;;;;;;;6.22;1.85;;;24.30;33.60;;;22.58;36.75;102431.97;12236197;19;20475;-79
2022/05/09 11:03:34;;;;;;;2.28;1.85;;;24.40;32.80;;;22.49;36.63;102416.72;12238594;19;20034;-79
2022/05/09 11:08:05;;;;;;;2.78;1.90;;;24.40;32.60;;;22.43;36.32;102417.22;12237175;19;21744;-79
2022/05/09 11:12:15;;;;;;;3.53;1.80;;;24.30;32.50;;;21.94;36.52;102341.19;12238682;19;20026;-78
2022/05/09 11:16:29;;;;;;;2.25;1.70;;;24.30;32.90;;;22.43;36.32;102410.06;12238489;19;20472;-77
2022/05/09 11:20:50;;;;;;;5.15;1.70;;;24.30;33.00;;;22.60;36.31;102415.88;12237216;19;20015;-78
2022/05/09 11:25:17;;;;;;;1.55;1.40;;;24.30;32.90;;;22.76;36.57;102411.00;12232704;19;20041;-78
2022/05/09 11:30:02;;;;;;;6.57;2.05;;;24.50;33.20;;;22.79;35.97;102397.47;12235169;19;20078;-78
2022/05/09 11:34:49;;;;;;;4.70;2.25;;;24.50;32.50;;;22.86;36.26;102395.97;12246645;19;20364;-78
2022/05/09 11:39:27;;;;;;;5.15;2.10;;;24.60;32.50;;;22.85;36.23;102378.31;12249708;19;20014;-77
2022/05/09 11:44:16;;;;;;;4.15;2.13;;;24.60;32.50;;;22.90;35.98;102384.13;12247032;19;20131;-78
2022/05/09 11:48:42;;;;;;;3.00;2.05;;;24.60;32.90;;;22.92;36.14;102375.97;12248980;19;20489;-78
2022/05/09 11:52:45;;;;;;;2.83;2.15;;;24.60;32.60;;;22.89;36.16;102371.75;12246237;19;20488;-78
2022/05/09 11:56:54;;;;;;;5.28;2.08;;;24.60;33.00;;;23.00;35.97;102372.72;12249969;19;20035;-77
2022/05/09 12:00:56;;;;;;;8.75;1.77;;;24.60;33.10;;;23.10;35.71;102371.00;12244418;19;20017;-77
2022/05/09 12:04:58;;;;;;;3.42;1.90;;;24.80;32.70;;;23.23;35.66;102374.34;12239433;19;20440;-78
2022/05/09 12:09:01;;;;;;;3.38;2.08;;;24.90;32.70;;;23.12;35.69;102342.41;12243444;19;20644;-77
2022/05/09 12:13:14;;;;;;;4.03;1.85;;;24.90;32.50;;;23.22;34.87;102355.81;12240925;19;20020;-77
2022/05/09 12:17:23;;;;;;;1.70;1.60;;;25.00;31.80;;;23.23;35.26;102355.69;12241807;19;20014;-77
2022/05/09 12:21:37;;;;;;;2.67;1.73;;;25.00;32.20;;;23.27;34.69;102338.47;12237696;19;20124;-78
2022/05/09 12:25:47;;;;;;;3.72;2.05;;;25.10;32.00;;;23.48;34.97;102361.63;12241924;19;20006;-77
2022/05/09 12:29:49;;;;;;;2.58;1.73;;;25.10;32.70;;;23.45;34.90;102345.91;12241648;19;20492;-77
2022/05/09 12:33:53;;;;;;;2.97;1.63;;;25.10;32.10;;;23.46;34.81;102332.41;12239432;19;20011;-77
2022/05/09 12:37:55;;;;;;;3.63;2.47;;;25.20;32.00;;;23.51;35.00;102335.56;12240432;19;20011;-78
2022/05/09 12:42:02;;;;;;;2.92;1.70;;;25.30;32.30;;;23.59;34.53;102319.75;12239990;19;20480;-78
2022/05/09 12:46:09;;;;;;;1.73;1.50;;;25.20;31.90;;;23.50;34.36;102293.88;12240135;19;20514;-78
2022/05/09 12:50:30;;;;;;;5.18;1.67;;;25.40;31.70;;;23.82;33.81;102344.50;12243717;19;20021;-77
2022/05/09 12:54:35;;;;;;;1.90;1.70;;;25.40;31.40;;;23.72;33.93;102346.25;12237895;19;20021;-78
2022/05/09 12:58:41;;;;;;;2.63;1.80;;;25.40;31.30;;;23.63;34.35;102318.50;12239544;19;20463;-78
2022/05/09 13:02:44;;;;;;;3.17;1.92;;;25.40;31.60;;;23.73;34.37;102318.59;12238650;19;20022;-78
2022/05/09 13:06:50;;;;;;;3.25;2.22;;;25.40;31.70;;;23.72;34.20;102298.22;12242117;19;20018;-77
2022/05/09 13:10:57;;;;;;;4.60;2.03;;;25.30;31.60;;;23.82;33.85;102311.63;12239226;19;20020;-78
2022/05/09 13:15:09;;;;;;;2.97;2.17;;;25.50;31.60;;;23.71;33.88;102282.31;12236728;19;20006;-78
2022/05/09 13:19:17;;;;;;;2.25;1.67;;;25.40;31.40;;;23.80;33.44;102287.75;12238542;19;20006;-77
2022/05/09 13:23:31;;;;;;;3.92;2.08;;;25.70;31.60;;;23.87;33.70;102281.88;12234839;19;20018;-78
2022/05/09 13:27:34;;;;;;;3.10;2.05;;;25.40;31.60;;;23.90;33.81;102277.13;12237735;19;20503;-78
2022/05/09 13:31:46;;;;;;;3.05;2.22;;;25.50;31.80;;;23.97;33.65;102266.75;12236934;19;20033;-78
2022/05/09 13:36:01;;;;;;;2.00;1.60;;;25.70;31.70;;;24.20;33.85;102268.25;12237708;19;20421;-78
2022/05/09 13:40:14;;;;;;;3.70;2.20;;;25.80;31.80;;;24.25;33.57;102263.34;12235178;19;20019;-77
2022/05/09 13:44:21;;;;;;;3.17;1.95;;;25.90;31.50;;;24.25;33.58;102249.16;12230489;19;20018;-79
2022/05/09 13:48:24;;;;;;;4.78;2.10;;;25.90;31.70;;;24.39;33.26;102245.25;12236762;19;20350;-77
2022/05/09 13:52:35;;;;;;;2.40;2.20;;;26.00;31.70;;;24.41;33.26;102229.91;12236126;19;20022;-77
2022/05/09 13:56:38;;;;;;;2.25;2.03;;;25.90;31.20;;;24.48;33.40;102242.59;12233489;19;20345;-77
2022/05/09 14:00:47;;;;;;;2.88;1.92;;;26.20;31.20;;;24.44;33.01;102243.03;12237731;19;20083;-78
2022/05/09 14:05:20;;;;;;;4.07;1.98;;;26.00;30.70;;;24.46;32.95;102238.38;12234693;19;20014;-78
2022/05/09 14:09:27;;;;;;;2.65;1.90;;;26.10;30.70;;;24.37;32.78;102226.66;12237788;19;20014;-77
2022/05/09 14:13:46;;;;;;;2.40;1.85;;;26.10;31.00;;;24.41;33.13;102225.44;12235816;19;20039;-77
2022/05/09 14:18:13;;;;;;;3.30;1.70;;;26.10;30.90;;;24.29;32.81;102195.31;12223712;19;20010;-77
2022/05/09 14:22:15;;;;;;;3.60;2.05;;;26.00;30.90;;;24.26;33.08;102194.75;12232512;19;20014;-77
2022/05/09 14:30:44;;;;;;;;;;;25.90;30.50;;;24.31;32.96;102191.69;12235601;19;20015;-77
2022/05/09 14:34:51;;;;;;;5.40;2.10;;;26.00;31.70;;;24.28;32.45;102212.31;12229014;19;20329;-77
2022/05/09 14:38:58;;;;;;;4.53;2.20;;;26.00;30.70;;;24.17;32.24;102177.75;12233532;19;20487;-77
2022/05/09 14:43:06;;;;;;;2.95;2.50;;;26.00;30.70;;;24.24;32.53;102172.69;12233557;19;20021;-77
2022/05/09 14:47:07;;;;;;;3.30;2.20;;;26.00;30.70;;;24.34;32.81;102184.22;12230847;19;20010;-77
2022/05/09 14:51:08;;;;;;;1.85;1.45;;;26.00;31.10;;;24.39;32.49;102171.31;12231208;19;20007;-77
2022/05/09 15:00:08;;;;;;;2.90;1.90;;;26.10;30.90;;;24.53;32.49;102178.09;12232234;19;20376;-77
2022/05/09 15:04:10;;;;;;;4.63;1.97;;;26.10;30.80;;;24.57;32.21;102175.97;12231105;19;20151;-77
2022/05/09 15:08:11;;;;;;;3.13;2.03;;;26.10;30.90;;;24.54;32.50;102155.72;12245464;19;20015;-77
2022/05/09 15:12:20;;;;;;;3.45;2.17;;;26.10;30.70;;;24.60;32.03;102155.16;12239124;19;20043;-77
2022/05/09 15:16:26;;;;;;;2.35;1.88;;;26.00;30.50;;;24.60;32.21;102147.16;12246052;19;20036;-77
2022/05/09 15:20:28;;;;;;;1.98;1.60;;;26.20;30.40;;;24.67;31.81;102150.94;12238900;19;20048;-77
2022/05/09 15:24:29;;;;;;;2.05;1.52;;;26.30;30.50;;;24.56;31.88;102113.69;12238801;19;20052;-77
2022/05/09 15:28:36;;;;;;;2.80;1.65;;;26.30;30.50;;;24.60;31.94;102125.78;12245038;19;20022;-77
2022/05/09 15:32:38;;;;;;;3.05;2.05;;;26.40;30.70;;;24.58;32.14;102127.75;12240995;19;20374;-77
2022/05/09 15:36:40;;;;;;;2.75;2.00;;;26.40;31.00;;;24.60;31.88;102146.28;12242006;19;20362;-77
2022/05/09 15:40:55;;;;;;;3.67;1.50;;;26.30;30.40;;;24.53;31.44;102132.66;12238424;19;20011;-77
2022/05/09 15:45:10;;;;;;;2.13;1.67;;;26.30;30.30;;;24.42;31.91;102106.09;12237872;19;20014;-77
2022/05/09 15:49:20;;;;;;;2.97;2.22;;;26.20;30.50;;;24.52;31.57;102123.00;12242324;19;20018;-77
2022/05/09 15:53:25;;;;;;;3.05;1.90;;;26.20;30.30;;;24.49;32.00;102116.09;12238305;19;20037;-78
2022/05/09 15:57:28;;;;;;;2.65;1.77;;;26.20;30.40;;;24.61;31.76;102123.97;12242281;19;20017;-76
2022/05/09 16:01:34;;;;;;;2.40;1.70;;;26.20;30.50;;;24.48;31.54;102117.06;12232365;19;20011;-77
2022/05/09 16:14:20;;;;;;;3.53;2.15;;;26.10;30.40;;;24.35;31.62;102110.28;12244301;19;20011;-76
2022/05/09 16:18:28;;;;;;;2.55;2.10;;;26.10;30.20;;;24.28;31.59;102108.19;12238364;19;20019;-76
2022/05/09 16:22:31;;;;;;;2.80;1.60;;;26.00;30.10;;;24.22;31.27;102108.78;12241092;19;20010;-76
2022/05/09 16:26:34;;;;;;;1.73;1.48;;;26.00;30.30;;;24.21;31.27;102112.41;12243684;19;20021;-78
2022/05/09 16:30:38;;;;;;;2.67;1.92;;;25.80;30.10;;;24.20;31.48;102102.72;12242063;19;20374;-77
2022/05/09 16:34:41;;;;;;;3.30;1.88;;;25.80;30.10;;;24.16;31.47;102100.47;12238854;19;20017;-77
2022/05/09 16:38:44;;;;;;;1.90;1.80;;;25.80;30.10;;;24.04;31.53;102081.91;12242647;19;20010;-77
2022/05/09 16:42:51;;;;;;;3.78;2.13;;;25.70;30.10;;;24.07;31.18;102083.47;12242916;19;20007;-77
2022/05/09 16:46:52;;;;;;;4.78;1.55;;;25.80;30.20;;;24.06;31.08;102089.75;12241618;19;20011;-77
2022/05/09 16:50:54;;;;;;;2.97;1.65;;;25.70;30.00;;;23.95;31.50;102079.22;12244151;19;20010;-78
2022/05/09 16:54:56;;;;;;;1.88;1.58;;;25.50;30.10;;;23.93;31.27;102091.88;12241061;19;20014;-76
2022/05/09 16:58:58;;;;;;;1.60;1.50;;;25.60;30.10;;;23.69;31.21;102054.91;12240358;19;20048;-76
2022/05/09 17:03:00;;;;;;;3.33;1.45;;;25.50;30.00;;;23.78;31.23;102075.44;12239935;19;20011;-77
2022/05/09 17:07:02;;;;;;;2.80;1.33;;;25.40;30.00;;;23.68;31.37;102064.69;12242362;19;20441;-76
2022/05/09 17:11:03;;;;;;;2.38;1.48;;;25.50;30.10;;;23.82;31.14;102087.53;12243613;19;20019;-77
2022/05/09 17:15:09;;;;;;;2.40;1.60;;;25.50;30.20;;;23.76;31.24;102088.91;12238380;19;20025;-77
2022/05/09 17:19:11;;;;;;;4.43;1.90;;;25.40;30.20;;;23.69;31.47;102090.41;12238947;19;20085;-77
2022/05/09 17:23:12;;;;;;;1.50;1.40;;;25.40;30.20;;;23.63;31.64;102093.63;12243853;19;20027;-77